createdAt,value
2022-11-21T00:04:05.943Z,12.07
2022-11-21T00:09:04.236Z,13.25
2022-11-21T00:14:03.892Z,11.90
2022-11-21T00:19:02.103Z,14.65
2022-11-21T00:24:00.339Z,19.08
2022-11-21T00:28:58.685Z,12.98
2022-11-21T00:33:58.294Z,20.30
2022-11-21T00:38:56.519Z,36.20
2022-11-21T00:43:54.747Z,88.90
2022-11-21T00:48:53.015Z,82.63
2022-11-21T00:53:52.645Z,55.78
2022-11-21T00:58:50.798Z,71.38
2022-11-21T01:03:49.118Z,61.85
2022-11-21T01:08:47.317Z,34.20
2022-11-21T01:13:46.991Z,12.63
2022-11-21T01:18:45.439Z,29.50
2022-11-21T01:23:43.677Z,14.90
2022-11-21T01:28:42.079Z,57.47
2022-11-21T01:33:42.019Z,35.38
2022-11-21T01:38:40.686Z,146.57
2022-11-21T01:43:39.318Z,141.65
2022-11-21T01:48:39.275Z,144.98
2022-11-21T01:53:39.800Z,87.95
2022-11-21T01:58:39.371Z,85.03
2022-11-21T02:03:39.212Z,139.82
2022-11-21T02:08:39.231Z,127.38
2022-11-21T02:13:37.435Z,27.38
2022-11-21T02:18:35.744Z,34.50
2022-11-21T02:23:38.780Z,48.58
2022-11-21T02:28:38.451Z,90.22
2022-11-21T02:33:36.755Z,43.42
2022-11-21T02:38:36.768Z,122.75
2022-11-21T02:43:38.019Z,79.00
2022-11-21T02:48:38.509Z,57.72
2022-11-21T02:53:36.828Z,42.10
2022-11-21T02:58:35.119Z,30.98
2022-11-21T03:03:33.350Z,22.30
2022-11-21T03:08:32.947Z,27.10
2022-11-21T03:13:31.163Z,125.28
2022-11-21T03:18:29.383Z,61.10
2022-11-21T03:23:27.650Z,39.40
2022-11-21T03:28:27.248Z,45.72
2022-11-21T03:33:25.452Z,68.18
2022-11-21T03:38:23.715Z,37.60
2022-11-21T03:43:21.965Z,39.00
2022-11-21T03:48:21.538Z,21.63
2022-11-21T03:53:19.756Z,40.30
2022-11-21T03:58:17.974Z,29.08
2022-11-21T04:03:16.227Z,28.13
2022-11-21T04:08:15.831Z,72.82
2022-11-21T04:13:14.062Z,23.38
2022-11-21T04:18:12.527Z,21.80
2022-11-21T04:23:10.748Z,26.52
2022-11-21T04:28:13.549Z,13.73
2022-11-21T04:33:12.647Z,28.25
2022-11-21T04:38:10.944Z,16.52
2022-11-21T04:43:10.512Z,9.73
2022-11-21T04:48:08.860Z,12.55
2022-11-21T04:53:07.055Z,9.00
2022-11-21T04:58:05.257Z,9.98
2022-11-21T05:03:05.532Z,10.23
2022-11-21T05:08:03.884Z,10.23
2022-11-21T05:13:19.641Z,7.65
2022-11-21T05:18:19.242Z,12.60
2022-11-21T05:23:17.471Z,11.10
2022-11-21T05:28:15.758Z,9.95
2022-11-21T05:33:13.998Z,9.05
2022-11-21T05:38:13.701Z,9.27
2022-11-21T05:43:29.810Z,23.42
2022-11-21T05:48:28.019Z,34.20
2022-11-21T05:53:27.625Z,38.10
2022-11-21T05:58:25.782Z,41.05
2022-11-21T06:03:30.921Z,31.60
2022-11-21T06:08:30.926Z,51.60
2022-11-21T06:13:29.309Z,30.52
2022-11-21T06:18:27.875Z,69.90
2022-11-21T06:23:26.027Z,78.13
2022-11-21T06:28:25.681Z,59.58
2022-11-21T06:33:23.876Z,47.05
2022-11-21T06:38:22.032Z,35.70
2022-11-21T06:43:20.218Z,27.02
2022-11-21T06:48:19.812Z,51.25
2022-11-21T06:53:17.962Z,36.35
2022-11-21T06:58:16.083Z,54.35
2022-11-21T07:03:14.238Z,39.63
2022-11-21T07:08:13.768Z,34.85
2022-11-21T07:13:24.779Z,79.50
2022-11-21T07:18:23.495Z,28.30
2022-11-21T07:23:23.015Z,30.77
2022-11-21T07:28:21.312Z,24.27
2022-11-21T07:33:19.459Z,39.35
2022-11-21T07:38:17.604Z,29.52
2022-11-21T08:12:36.681Z,15.75
2022-11-21T08:17:34.839Z,16.50
2022-11-21T08:22:32.976Z,19.90
2022-11-21T08:27:31.193Z,22.02
2022-11-21T08:32:30.705Z,69.35
2022-11-21T08:37:29.270Z,49.78
2022-11-21T08:42:27.647Z,34.40
2022-11-21T08:47:25.842Z,54.15
2022-11-21T08:52:25.343Z,82.95
2022-11-21T08:57:23.491Z,88.78
2022-11-21T09:02:21.644Z,144.50
2022-11-21T09:07:19.865Z,128.10
2022-11-21T09:12:19.432Z,208.27
2022-11-21T09:17:40.158Z,233.00
2022-11-21T09:22:38.300Z,164.45
2022-11-21T09:27:37.965Z,176.15
2022-11-21T09:32:37.049Z,129.35
2022-11-21T09:37:37.387Z,89.50
2022-11-21T09:42:47.045Z,41.95
2022-11-21T09:47:46.619Z,68.50
2022-11-21T09:52:47.730Z,41.83
2022-11-21T09:57:48.928Z,27.38
2022-11-21T10:02:47.127Z,30.85
2022-11-21T10:07:47.214Z,34.65
2022-11-21T10:12:52.973Z,32.60
2022-11-21T10:17:58.224Z,24.40
2022-11-21T10:23:04.032Z,13.13
2022-11-21T10:28:06.403Z,8.38
2022-11-21T10:33:05.657Z,5.80
2022-11-21T10:38:05.608Z,9.43
2022-11-21T10:43:27.576Z,8.25
2022-11-21T10:48:25.745Z,9.20
2022-11-21T10:53:43.164Z,11.77
2022-11-21T10:58:44.284Z,6.70
2022-11-21T11:04:00.991Z,12.18
2022-11-21T11:09:02.894Z,12.15
2022-11-21T11:14:03.705Z,17.30
2022-11-21T11:19:03.353Z,16.23
2022-11-21T11:24:20.339Z,12.45
2022-11-21T11:29:20.725Z,5.18
2022-11-21T11:34:19.064Z,8.73
2022-11-21T11:39:20.224Z,8.73
2022-11-21T11:44:41.396Z,10.10
2022-11-21T11:49:55.797Z,7.70
2022-11-21T11:54:57.316Z,17.13
2022-11-21T12:00:00.413Z,17.73
2022-11-21T12:05:00.671Z,22.40
2022-11-21T12:10:00.638Z,17.67
2022-11-21T12:15:20.903Z,34.67
2022-11-21T12:20:21.916Z,29.30
2022-11-21T12:25:21.131Z,25.02
2022-11-21T12:30:40.337Z,24.17
2022-11-21T12:35:48.095Z,5.63
2022-11-21T12:40:49.544Z,6.43
2022-11-21T12:45:52.005Z,4.40
2022-11-21T12:51:12.232Z,6.78
2022-11-21T12:56:15.107Z,4.72
2022-11-21T13:01:22.000Z,7.28
2022-11-21T13:06:22.452Z,6.15
2022-11-21T13:11:47.414Z,5.80
2022-11-21T13:16:50.787Z,4.05
2022-11-21T13:21:50.169Z,6.00
2022-11-21T13:26:56.927Z,5.63
2022-11-21T13:31:56.436Z,8.48
2022-11-21T13:36:54.612Z,6.60
2022-11-21T13:42:20.875Z,4.95
2022-11-21T13:47:56.441Z,11.68
2022-11-21T13:53:02.030Z,5.27
2022-11-21T14:03:10.597Z,5.72
2022-11-21T14:08:18.122Z,6.60
2022-11-21T14:13:22.655Z,7.22
2022-11-21T14:18:22.140Z,8.20
2022-11-21T14:23:22.503Z,6.65
2022-11-21T14:28:23.762Z,5.53
2022-11-21T14:33:25.601Z,9.55
2022-11-21T14:38:25.306Z,10.75
2022-11-21T14:43:33.463Z,17.38
2022-11-21T14:48:32.019Z,18.20
2022-11-21T14:53:33.191Z,14.02
2022-11-21T14:58:31.377Z,17.20
2022-11-21T15:03:29.571Z,19.60
2022-11-21T15:14:12.885Z,33.15
2022-11-21T15:19:10.101Z,55.20
2022-11-21T15:24:17.697Z,70.95
2022-11-21T15:29:21.964Z,81.43
2022-11-21T15:39:45.756Z,18.90
2022-11-21T15:44:59.909Z,21.80
2022-11-21T15:49:58.126Z,54.20
2022-11-21T15:54:56.332Z,31.77
2022-11-21T15:57:12.671Z,34.73
2022-11-21T15:59:54.611Z,56.33
2022-11-21T16:04:54.727Z,50.72
2022-11-21T16:09:53.066Z,23.73
2022-11-21T16:14:51.312Z,81.63
2022-11-21T16:19:49.669Z,54.88
2022-11-21T16:24:49.500Z,38.88
2022-11-21T16:29:47.867Z,26.67
2022-11-21T16:34:47.142Z,25.67
2022-11-21T16:39:51.807Z,13.27
2022-11-21T16:44:51.401Z,18.88
2022-11-21T16:49:49.713Z,16.45
2022-11-21T16:54:47.958Z,18.52
2022-11-21T16:59:47.132Z,10.93
2022-11-21T17:04:47.023Z,35.03
2022-11-21T17:09:45.313Z,18.67
2022-11-21T17:14:43.704Z,33.05
2022-11-21T17:19:41.868Z,19.27
2022-11-21T17:24:41.577Z,9.90
2022-11-21T17:29:39.851Z,14.93
2022-11-21T17:34:38.507Z,20.45
2022-11-21T17:39:37.267Z,28.50
2022-11-21T17:44:36.879Z,10.48
2022-11-21T17:49:37.225Z,19.70
2022-11-21T17:54:35.735Z,16.02
2022-11-21T17:59:34.828Z,9.18
2022-11-21T18:04:38.922Z,13.38
2022-11-21T18:09:37.135Z,12.43
2022-11-21T18:14:35.376Z,12.32
2022-11-21T18:19:35.285Z,16.75
2022-11-21T18:24:33.551Z,17.80
2022-11-21T18:29:36.569Z,25.35
2022-11-21T18:34:36.719Z,19.80
2022-11-21T18:39:35.058Z,11.95
2022-11-21T18:44:33.247Z,18.60
2022-11-21T18:49:31.687Z,12.73
2022-11-21T18:54:31.427Z,13.93
2022-11-21T18:59:30.108Z,14.32
2022-11-21T19:04:28.940Z,15.88
2022-11-21T19:09:32.424Z,12.15
2022-11-21T19:14:32.489Z,12.18
2022-11-21T19:19:35.376Z,11.32
2022-11-21T19:24:34.510Z,11.30
2022-11-21T19:29:36.200Z,9.80
2022-11-21T19:34:34.503Z,14.30
2022-11-21T19:39:32.755Z,15.93
2022-11-21T19:44:31.004Z,12.63
2022-11-21T19:49:31.020Z,13.18
2022-11-21T19:54:29.527Z,12.45
2022-11-21T19:59:28.507Z,22.63
2022-11-21T20:04:27.196Z,15.73
2022-11-21T20:09:30.644Z,18.40
2022-11-21T20:14:32.600Z,18.58
2022-11-21T20:19:31.258Z,16.50
2022-11-21T20:24:31.405Z,19.90
2022-11-21T20:29:30.892Z,15.35
2022-11-21T20:34:29.560Z,43.20
2022-11-21T20:39:31.810Z,14.32
2022-11-21T20:49:49.909Z,17.55
2022-11-21T20:54:48.276Z,25.30
2022-11-21T20:59:47.851Z,15.40
2022-11-21T21:04:46.103Z,46.15
2022-11-21T21:09:44.318Z,20.67
2022-11-21T21:14:42.632Z,16.77
2022-11-21T21:19:42.303Z,29.30
2022-11-21T21:24:40.523Z,17.80
2022-11-21T21:29:38.769Z,14.05
2022-11-21T21:34:37.004Z,13.30
2022-11-21T21:39:36.630Z,26.45
2022-11-21T21:44:35.555Z,25.40
2022-11-21T21:49:34.043Z,12.88
2022-11-21T21:54:32.541Z,23.42
2022-11-21T21:59:33.079Z,13.52
2022-11-21T22:04:32.227Z,16.42
2022-11-21T22:09:30.908Z,17.35
2022-11-21T22:14:29.802Z,14.45
2022-11-21T22:19:29.658Z,66.38
2022-11-21T22:24:28.098Z,12.45
2022-11-21T22:29:26.520Z,11.30
2022-11-21T22:34:24.856Z,12.65
2022-11-21T22:39:24.510Z,11.63
2022-11-21T22:44:22.879Z,12.02
2022-11-21T22:49:21.340Z,11.88
2022-11-21T22:54:19.526Z,15.23
2022-11-21T22:59:19.121Z,11.93
2022-11-21T23:04:17.989Z,13.15
2022-11-21T23:09:16.393Z,13.30
2022-11-21T23:14:14.754Z,13.73
2022-11-21T23:19:14.339Z,13.10
2022-11-21T23:24:12.987Z,12.90
2022-11-21T23:29:11.293Z,13.90
2022-11-21T23:34:11.207Z,12.25
2022-11-21T23:39:10.896Z,22.27
2022-11-21T23:44:09.088Z,14.15
2022-11-21T23:49:07.358Z,13.55
2022-11-21T23:54:06.794Z,13.25
2022-11-21T23:59:06.418Z,30.88
